Thompson Falls, Montana
Current Conditions -  °F | °C
As of 5:24 PM on Friday 28 Nov 2014 (Local Time) from KMLP Reporting Station
Moderate Snow Moderate Snow  
Wind Chill: 24°   Ceiling: 200
Heat Index: 32°   Visibility: 0.25mi
Dew Point: 32°   Wind: 10mph
Humidity: 100%   Direction: 180°S
Pressure: 29.33"   Gusts: 20mph
Location:  47.6°N, 115.34°W
Report Text: KMLP 290024Z AUTO 18009G17KT 140V220 1/4SM SN FG VV002 00/00 A2933 RMK AO2 P0007 T00000000
Loading
Personal Weather Stations






























Interactive Weather Map New forecast layout! Learn more

10-Day Weather Forecast

Advertisements
Track Severe Weather on mobile